createdAt,value
2022-08-20T00:00:42.692Z,100.00
2022-08-20T00:03:15.196Z,100.00
2022-08-20T00:05:45.497Z,100.00
2022-08-20T00:08:12.879Z,100.00
2022-08-20T00:10:42.023Z,100.00
2022-08-20T00:13:11.516Z,100.00
2022-08-20T00:15:42.585Z,100.00
2022-08-20T00:18:10.074Z,100.00
2022-08-20T00:20:43.002Z,100.00
2022-08-20T00:23:10.610Z,100.00
2022-08-20T00:25:38.102Z,100.00
2022-08-20T00:28:07.052Z,100.00
2022-08-20T00:30:35.568Z,100.00
2022-08-20T00:33:06.546Z,100.00
2022-08-20T00:35:36.709Z,100.00
2022-08-20T00:38:04.384Z,100.00
2022-08-20T00:40:46.924Z,100.00
2022-08-20T00:43:45.334Z,100.00
2022-08-20T00:46:18.478Z,100.00
2022-08-20T00:48:49.365Z,100.00
2022-08-20T00:51:36.269Z,100.00
2022-08-20T00:54:15.130Z,100.00
2022-08-20T00:56:45.588Z,100.00
2022-08-20T00:59:16.935Z,100.00
2022-08-20T01:01:55.637Z,100.00
2022-08-20T01:04:28.808Z,100.00
2022-08-20T01:06:56.082Z,100.00
2022-08-20T01:09:33.314Z,100.00
2022-08-20T01:12:11.673Z,100.00
2022-08-20T01:14:45.954Z,100.00
2022-08-20T01:17:17.806Z,100.00
2022-08-20T01:19:50.543Z,100.00
2022-08-20T01:22:44.137Z,100.00
2022-08-20T01:25:22.649Z,100.00
2022-08-20T01:27:53.217Z,100.00
2022-08-20T01:30:24.314Z,100.00
2022-08-20T01:32:51.105Z,100.00
2022-08-20T01:35:22.971Z,100.00
2022-08-20T01:37:49.693Z,100.00
2022-08-20T01:40:29.509Z,100.00
2022-08-20T01:42:58.889Z,100.00
2022-08-20T01:45:28.296Z,100.00
2022-08-20T01:47:58.247Z,100.00
2022-08-20T01:50:29.019Z,100.00
2022-08-20T01:53:18.510Z,100.00
2022-08-20T01:55:47.125Z,100.00
2022-08-20T01:58:13.938Z,100.00
2022-08-20T02:00:40.700Z,100.00
2022-08-20T02:03:08.765Z,100.00
2022-08-20T02:05:36.223Z,100.00
2022-08-20T02:08:04.999Z,100.00
2022-08-20T02:10:34.243Z,100.00
2022-08-20T02:13:01.235Z,100.00
2022-08-20T02:15:35.238Z,100.00
2022-08-20T02:18:08.410Z,100.00
2022-08-20T02:20:36.977Z,100.00
2022-08-20T02:23:05.243Z,100.00
2022-08-20T02:25:35.566Z,100.00
2022-08-20T02:28:06.498Z,100.00
2022-08-20T02:30:42.735Z,100.00
2022-08-20T02:33:12.421Z,100.00
2022-08-20T02:35:42.787Z,100.00
2022-08-20T02:38:10.774Z,100.00
2022-08-20T02:40:37.990Z,100.00
2022-08-20T02:43:05.369Z,100.00
2022-08-20T02:45:39.291Z,100.00
2022-08-20T02:48:06.031Z,100.00
2022-08-20T02:50:32.703Z,100.00
2022-08-20T02:52:59.508Z,100.00
2022-08-20T02:55:27.784Z,100.00
2022-08-20T02:58:00.378Z,100.00
2022-08-20T03:00:31.100Z,100.00
2022-08-20T03:03:06.371Z,100.00
2022-08-20T03:05:33.023Z,100.00
2022-08-20T03:07:59.925Z,100.00
2022-08-20T03:10:36.248Z,100.00
2022-08-20T03:13:04.450Z,100.00
2022-08-20T03:15:32.715Z,100.00
2022-08-20T03:18:02.041Z,100.00
2022-08-20T03:20:29.113Z,100.00
2022-08-20T03:22:56.238Z,100.00
2022-08-20T03:25:23.246Z,100.00
2022-08-20T03:27:54.283Z,100.00
2022-08-20T03:30:25.216Z,100.00
2022-08-20T03:32:52.298Z,100.00
2022-08-20T03:35:20.996Z,100.00
2022-08-20T03:37:50.869Z,100.00
2022-08-20T03:40:25.697Z,100.00
2022-08-20T03:42:57.160Z,100.00
2022-08-20T03:45:25.762Z,100.00
2022-08-20T03:47:53.449Z,100.00
2022-08-20T03:50:29.492Z,100.00
2022-08-20T03:52:57.121Z,100.00
2022-08-20T03:55:24.697Z,100.00
2022-08-20T03:58:00.738Z,100.00
2022-08-20T04:00:37.526Z,100.00
2022-08-20T04:03:05.808Z,100.00
2022-08-20T04:05:33.620Z,100.00
2022-08-20T04:08:03.060Z,100.00
2022-08-20T04:10:35.464Z,100.00
2022-08-20T04:13:02.244Z,100.00
2022-08-20T04:15:28.919Z,100.00
2022-08-20T04:17:55.817Z,100.00
2022-08-20T04:20:26.052Z,100.00
2022-08-20T04:22:58.720Z,100.00
2022-08-20T04:25:29.519Z,100.00
2022-08-20T04:27:58.789Z,100.00
2022-08-20T04:30:29.774Z,100.00
2022-08-20T04:32:56.797Z,100.00
2022-08-20T04:35:24.742Z,100.00
2022-08-20T04:37:59.315Z,100.00
2022-08-20T04:40:44.939Z,100.00
2022-08-20T04:43:12.430Z,100.00
2022-08-20T04:45:40.239Z,100.00
2022-08-20T04:48:11.715Z,100.00
2022-08-20T04:50:44.232Z,100.00
2022-08-20T04:53:12.967Z,100.00
2022-08-20T04:55:53.333Z,100.00
2022-08-20T04:58:33.865Z,100.00
2022-08-20T05:01:04.242Z,100.00
2022-08-20T05:03:31.966Z,100.00
2022-08-20T05:05:59.358Z,100.00
2022-08-20T05:08:26.554Z,100.00
2022-08-20T05:10:59.915Z,100.00
2022-08-20T05:13:42.918Z,100.00
2022-08-20T05:16:10.001Z,100.00
2022-08-20T05:18:37.321Z,93.83
2022-08-20T05:21:07.780Z,90.10
2022-08-20T05:23:36.428Z,81.03
2022-08-20T05:26:09.162Z,79.51
2022-08-20T05:28:52.816Z,73.73
2022-08-20T05:31:32.559Z,70.11
2022-08-20T05:34:10.743Z,68.92
2022-08-20T05:36:44.156Z,66.61
2022-08-20T05:39:11.297Z,66.51
2022-08-20T05:41:39.963Z,63.23
2022-08-20T05:44:13.511Z,60.26
2022-08-20T05:46:43.785Z,55.19
2022-08-20T05:49:14.319Z,54.90
2022-08-20T05:51:41.156Z,52.47
2022-08-20T05:54:08.186Z,49.71
2022-08-20T05:56:36.975Z,49.53
2022-08-20T05:59:07.450Z,48.30
2022-08-20T06:01:37.641Z,47.52
2022-08-20T06:04:23.596Z,45.37
2022-08-20T06:06:52.924Z,44.47
2022-08-20T06:09:31.017Z,42.84
2022-08-20T06:12:01.700Z,41.87
2022-08-20T06:14:30.277Z,41.25
2022-08-20T06:17:03.209Z,40.48
2022-08-20T06:19:34.333Z,40.23
2022-08-20T06:22:08.647Z,39.07
2022-08-20T06:24:46.086Z,39.94
2022-08-20T06:27:15.555Z,39.29
2022-08-20T06:29:42.221Z,38.24
2022-08-20T06:32:08.901Z,37.64
2022-08-20T06:34:35.707Z,38.02
2022-08-20T06:37:02.346Z,36.24
2022-08-20T06:39:31.217Z,35.55
2022-08-20T06:41:58.845Z,34.44
2022-08-20T06:44:29.141Z,34.53
2022-08-20T06:47:03.636Z,34.92
2022-08-20T06:49:35.292Z,34.14
2022-08-20T06:52:06.074Z,34.07
2022-08-20T06:54:34.388Z,34.34
2022-08-20T06:57:02.561Z,34.02
2022-08-20T06:59:29.367Z,36.39
2022-08-20T07:01:56.598Z,36.10
2022-08-20T07:04:28.305Z,36.97
2022-08-20T07:06:57.549Z,36.79
2022-08-20T07:09:26.101Z,39.68
2022-08-20T07:11:53.276Z,40.91
2022-08-20T07:14:20.739Z,40.31
2022-08-20T07:16:48.248Z,42.49
2022-08-20T07:19:17.930Z,41.07
2022-08-20T07:21:49.312Z,39.88
2022-08-20T07:24:15.994Z,41.54
2022-08-20T07:26:43.780Z,40.63
2022-08-20T07:29:11.583Z,37.85
2022-08-20T07:31:56.847Z,35.32
2022-08-20T07:34:27.863Z,40.05
2022-08-20T07:36:54.997Z,39.32
2022-08-20T07:39:21.682Z,42.16
2022-08-20T07:42:06.049Z,38.73
2022-08-20T07:44:32.724Z,38.04
2022-08-20T07:46:59.510Z,37.39
2022-08-20T07:49:26.255Z,38.21
2022-08-20T07:51:52.922Z,36.53
2022-08-20T07:54:19.530Z,36.12
2022-08-20T07:56:46.297Z,34.19
2022-08-20T07:59:16.202Z,35.83
2022-08-20T08:01:42.928Z,36.55
2022-08-20T08:04:09.612Z,36.22
2022-08-20T08:06:36.266Z,34.55
2022-08-20T08:09:09.231Z,33.08
2022-08-20T08:11:39.963Z,35.46
2022-08-20T08:14:09.841Z,38.41
2022-08-20T08:16:37.374Z,40.36
2022-08-20T08:19:07.000Z,38.71
2022-08-20T08:21:33.687Z,41.21
2022-08-20T08:24:00.605Z,38.43
2022-08-20T08:26:31.506Z,37.72
2022-08-20T08:29:02.559Z,38.48
2022-08-20T08:31:29.718Z,41.48
2022-08-20T08:33:59.827Z,41.57
2022-08-20T08:36:27.442Z,42.83
2022-08-20T08:38:55.162Z,43.93
2022-08-20T08:41:29.852Z,42.60
2022-08-20T08:43:59.766Z,42.97
2022-08-20T08:46:27.940Z,40.24
2022-08-20T08:48:59.235Z,40.31
2022-08-20T08:51:50.132Z,40.20
2022-08-20T08:54:20.495Z,42.81
2022-08-20T08:56:49.761Z,43.40
2022-08-20T08:59:18.959Z,42.87
2022-08-20T09:01:54.085Z,43.39
2022-08-20T09:04:31.858Z,44.90
2022-08-20T09:07:02.920Z,43.75
2022-08-20T09:09:34.088Z,46.16
2022-08-20T09:12:19.181Z,49.77
2022-08-20T09:14:48.001Z,49.34
2022-08-20T09:17:21.036Z,48.27
2022-08-20T09:19:47.782Z,49.43
2022-08-20T09:22:18.503Z,54.36
2022-08-20T09:27:36.540Z,49.47
2022-08-20T09:30:07.460Z,51.73
2022-08-20T09:32:39.525Z,54.44
2022-08-20T09:35:09.320Z,51.99
2022-08-20T09:37:38.113Z,59.66
2022-08-20T09:40:08.176Z,55.95
2022-08-20T09:42:41.065Z,57.44
2022-08-20T09:45:12.499Z,47.97
2022-08-20T09:47:43.827Z,50.75
2022-08-20T09:50:25.339Z,53.48
2022-08-20T09:52:53.995Z,52.51
2022-08-20T09:55:41.666Z,53.53
2022-08-20T09:58:13.265Z,54.70
2022-08-20T10:00:40.639Z,50.70
2022-08-20T10:03:07.839Z,56.34
2022-08-20T10:05:34.517Z,55.06
2022-08-20T10:08:01.133Z,51.39
2022-08-20T10:10:27.835Z,56.50
2022-08-20T10:12:55.176Z,51.91
2022-08-20T10:15:22.066Z,53.72
2022-08-20T10:17:50.295Z,51.88
2022-08-20T10:20:19.689Z,50.61
2022-08-20T10:22:46.991Z,54.05
2022-08-20T10:25:13.734Z,51.34
2022-08-20T10:27:41.675Z,51.30
2022-08-20T10:30:09.020Z,52.53
2022-08-20T10:32:37.463Z,51.00
2022-08-20T10:35:05.118Z,50.19
2022-08-20T10:37:31.838Z,51.79
2022-08-20T10:39:58.668Z,55.82
2022-08-20T10:42:25.441Z,57.45
2022-08-20T10:44:52.176Z,55.08
2022-08-20T10:47:25.640Z,54.84
2022-08-20T10:49:54.958Z,53.16
2022-08-20T10:52:22.283Z,51.95
2022-08-20T10:54:49.571Z,53.39
2022-08-20T10:57:21.518Z,55.65
2022-08-20T10:59:55.129Z,57.97
2022-08-20T11:02:22.941Z,57.00
2022-08-20T11:04:50.365Z,55.64
2022-08-20T11:07:49.843Z,59.93
2022-08-20T11:10:19.383Z,51.18
2022-08-20T11:12:46.858Z,57.80
2022-08-20T11:15:14.766Z,51.14
2022-08-20T11:17:43.358Z,55.31
2022-08-20T11:20:13.481Z,54.79
2022-08-20T11:22:42.331Z,60.56
2022-08-20T11:25:09.662Z,53.79
2022-08-20T11:27:43.102Z,56.83
2022-08-20T11:30:14.003Z,54.63
2022-08-20T11:32:40.673Z,53.17
2022-08-20T11:35:24.893Z,53.12
2022-08-20T11:37:56.939Z,53.49
2022-08-20T11:40:25.022Z,56.98
2022-08-20T11:43:13.727Z,61.68
2022-08-20T11:45:42.948Z,58.80
2022-08-20T11:48:09.744Z,61.54
2022-08-20T11:50:36.403Z,54.64
2022-08-20T11:53:03.104Z,57.82
2022-08-20T11:55:30.337Z,55.62
2022-08-20T11:58:00.314Z,56.68
2022-08-20T12:00:33.516Z,55.27
2022-08-20T12:03:06.628Z,54.43
2022-08-20T12:08:30.875Z,60.67
2022-08-20T12:11:03.428Z,57.52
2022-08-20T12:13:48.136Z,60.55
2022-08-20T12:16:20.237Z,63.91
2022-08-20T12:18:48.153Z,58.66
2022-08-20T12:21:15.253Z,56.21
2022-08-20T12:23:42.093Z,53.51
2022-08-20T12:26:09.692Z,52.30
2022-08-20T12:28:36.485Z,54.98
2022-08-20T12:31:07.701Z,52.82
2022-08-20T12:33:34.829Z,58.29
2022-08-20T12:36:01.564Z,55.83
2022-08-20T12:38:28.365Z,52.30
2022-08-20T12:40:55.019Z,58.22
2022-08-20T12:43:24.885Z,52.33
2022-08-20T12:45:52.395Z,54.29
2022-08-20T12:48:20.907Z,52.99
2022-08-20T12:50:53.724Z,55.17
2022-08-20T12:53:20.386Z,51.84
2022-08-20T12:55:47.937Z,52.46
2022-08-20T12:58:14.629Z,51.31
2022-08-20T13:00:46.490Z,53.65
2022-08-20T13:03:17.652Z,50.84
2022-08-20T13:05:44.526Z,56.15
2022-08-20T13:08:12.390Z,53.98
2022-08-20T13:10:45.973Z,52.79
2022-08-20T13:13:14.264Z,51.88
2022-08-20T13:15:41.799Z,51.35
2022-08-20T13:18:09.033Z,51.59
2022-08-20T13:20:36.495Z,50.10
2022-08-20T13:23:04.953Z,53.22
2022-08-20T13:25:31.920Z,52.00
2022-08-20T13:28:04.504Z,55.52
2022-08-20T13:30:38.439Z,54.29
2022-08-20T13:33:05.143Z,52.61
2022-08-20T13:35:32.169Z,53.06
2022-08-20T13:37:58.896Z,54.31
2022-08-20T13:40:26.036Z,55.66
2022-08-20T13:42:52.736Z,58.96
2022-08-20T13:45:19.628Z,59.24
2022-08-20T13:47:46.751Z,58.31
2022-08-20T13:50:19.152Z,60.36
2022-08-20T13:52:46.499Z,67.81
2022-08-20T13:55:18.855Z,64.94
2022-08-20T13:57:48.991Z,60.42
2022-08-20T14:00:20.965Z,61.03
2022-08-20T14:02:58.827Z,58.23
2022-08-20T14:05:25.601Z,62.49
2022-08-20T14:07:52.282Z,66.70
2022-08-20T14:10:24.342Z,62.98
2022-08-20T14:12:51.530Z,65.76
2022-08-20T14:15:19.221Z,66.40
2022-08-20T14:17:51.835Z,65.50
2022-08-20T14:20:21.940Z,65.61
2022-08-20T14:22:49.666Z,66.40
2022-08-20T14:25:18.307Z,67.05
2022-08-20T14:27:45.118Z,69.19
2022-08-20T14:30:19.689Z,72.70
2022-08-20T14:32:46.590Z,68.46
2022-08-20T14:35:16.445Z,74.73
2022-08-20T14:37:47.213Z,73.26
2022-08-20T14:40:17.563Z,71.80
2022-08-20T14:42:47.781Z,71.24
2022-08-20T14:45:18.990Z,71.60
2022-08-20T14:47:53.540Z,79.14
2022-08-20T14:50:33.673Z,76.62
2022-08-20T14:53:01.523Z,73.41
2022-08-20T14:55:31.401Z,73.96
2022-08-20T14:57:59.218Z,73.34
2022-08-20T15:00:30.167Z,75.21
2022-08-20T15:02:57.374Z,77.97
2022-08-20T15:05:26.787Z,78.33
2022-08-20T15:07:54.301Z,79.86
2022-08-20T15:10:30.001Z,77.46
2022-08-20T15:12:57.404Z,78.54
2022-08-20T15:15:25.075Z,78.89
2022-08-20T15:18:00.540Z,84.10
2022-08-20T15:20:31.126Z,83.39
2022-08-20T15:22:58.266Z,79.93
2022-08-20T15:25:36.600Z,74.61
2022-08-20T15:28:06.601Z,82.37
2022-08-20T15:30:33.653Z,79.36
2022-08-20T15:33:00.837Z,78.51
2022-08-20T15:35:28.718Z,78.42
2022-08-20T15:38:00.836Z,75.35
2022-08-20T15:40:31.024Z,79.52
2022-08-20T15:42:59.565Z,79.10
2022-08-20T15:45:27.142Z,79.86
2022-08-20T15:48:13.147Z,78.55
2022-08-20T15:51:01.988Z,82.85
2022-08-20T15:53:43.257Z,78.51
2022-08-20T15:56:22.365Z,78.58
2022-08-20T15:58:55.100Z,80.63
2022-08-20T16:01:39.651Z,85.57
2022-08-20T16:04:16.527Z,85.38
2022-08-20T16:06:47.555Z,85.69
2022-08-20T16:09:46.307Z,88.97
2022-08-20T16:12:23.041Z,89.17
2022-08-20T16:14:53.602Z,93.25
2022-08-20T16:17:32.017Z,88.74
2022-08-20T16:20:10.388Z,92.06
2022-08-20T16:22:46.105Z,92.54
2022-08-20T16:25:14.968Z,93.54
2022-08-20T16:27:44.568Z,90.90
2022-08-20T16:30:20.730Z,91.81
2022-08-20T16:33:01.055Z,91.98
2022-08-20T16:35:35.328Z,93.60
2022-08-20T16:38:21.112Z,93.63
2022-08-20T16:41:08.028Z,94.38
2022-08-20T16:43:46.364Z,93.58
2022-08-20T16:46:17.864Z,95.06
2022-08-20T16:48:54.905Z,93.77
2022-08-20T16:51:51.777Z,93.08
2022-08-20T16:54:28.453Z,95.55
2022-08-20T16:57:01.548Z,96.16
2022-08-20T16:59:28.963Z,95.73
2022-08-20T17:02:06.959Z,100.00
2022-08-20T17:04:50.470Z,100.00
2022-08-20T17:07:52.941Z,100.00
2022-08-20T17:10:30.078Z,100.00
2022-08-20T17:13:15.042Z,100.00
2022-08-20T17:15:43.950Z,100.00
2022-08-20T17:18:24.070Z,100.00
2022-08-20T17:20:50.843Z,100.00
2022-08-20T17:23:21.087Z,100.00
2022-08-20T17:26:02.510Z,100.00
2022-08-20T17:28:34.568Z,100.00
2022-08-20T17:31:02.645Z,100.00
2022-08-20T17:33:39.404Z,100.00
2022-08-20T17:36:22.291Z,100.00
2022-08-20T17:38:54.678Z,100.00
2022-08-20T17:41:34.371Z,100.00
2022-08-20T17:44:05.535Z,100.00
2022-08-20T17:46:42.457Z,100.00
2022-08-20T17:49:17.129Z,100.00
2022-08-20T17:51:55.158Z,100.00
2022-08-20T17:54:27.224Z,100.00
2022-08-20T17:56:59.767Z,100.00
2022-08-20T18:00:01.057Z,100.00
2022-08-20T18:02:27.761Z,100.00
2022-08-20T18:04:55.860Z,100.00
2022-08-20T18:07:39.502Z,100.00
2022-08-20T18:10:16.568Z,100.00
2022-08-20T18:12:56.520Z,100.00
2022-08-20T18:18:22.698Z,100.00
2022-08-20T18:21:12.823Z,100.00
2022-08-20T18:23:55.408Z,100.00
2022-08-20T18:26:28.124Z,100.00
2022-08-20T18:29:08.698Z,100.00
2022-08-20T18:31:55.286Z,100.00
2022-08-20T18:34:35.618Z,100.00
2022-08-20T18:40:22.459Z,100.00
2022-08-20T18:42:49.284Z,100.00
2022-08-20T18:45:29.243Z,100.00
2022-08-20T18:48:01.200Z,100.00
2022-08-20T18:50:40.164Z,100.00
2022-08-20T18:53:20.669Z,100.00
2022-08-20T18:56:02.427Z,100.00
2022-08-20T18:58:50.065Z,100.00
2022-08-20T19:01:20.568Z,100.00
2022-08-20T19:03:56.432Z,100.00
2022-08-20T19:06:29.354Z,100.00
2022-08-20T19:09:14.868Z,100.00
2022-08-20T19:11:59.966Z,100.00
2022-08-20T19:15:01.502Z,100.00
2022-08-20T19:18:00.565Z,100.00
2022-08-20T19:20:32.552Z,100.00
2022-08-20T19:23:14.831Z,100.00
2022-08-20T19:26:00.113Z,100.00
2022-08-20T19:28:26.656Z,100.00
2022-08-20T19:30:53.412Z,100.00
2022-08-20T19:33:31.262Z,100.00
2022-08-20T19:36:16.126Z,100.00
2022-08-20T19:38:55.070Z,100.00
2022-08-20T19:41:30.955Z,100.00
2022-08-20T19:44:00.113Z,100.00
2022-08-20T19:46:31.145Z,100.00
2022-08-20T19:49:08.671Z,100.00
2022-08-20T19:51:48.007Z,100.00
2022-08-20T19:54:23.327Z,100.00
2022-08-20T19:56:51.084Z,100.00
2022-08-20T19:59:21.776Z,100.00
2022-08-20T20:02:00.172Z,100.00
2022-08-20T20:04:29.852Z,100.00
2022-08-20T20:06:58.408Z,100.00
2022-08-20T20:09:30.645Z,100.00
2022-08-20T20:12:02.841Z,100.00
2022-08-20T20:14:33.565Z,100.00
2022-08-20T20:17:03.850Z,100.00
2022-08-20T20:19:30.572Z,100.00
2022-08-20T20:22:19.004Z,100.00
2022-08-20T20:24:50.830Z,100.00
2022-08-20T20:27:24.411Z,100.00
2022-08-20T20:30:01.437Z,100.00
2022-08-20T20:32:30.461Z,100.00
2022-08-20T20:34:59.722Z,100.00
2022-08-20T20:37:48.834Z,100.00
2022-08-20T20:40:23.020Z,100.00
2022-08-20T20:43:05.856Z,100.00
2022-08-20T20:45:37.198Z,100.00
2022-08-20T20:48:14.602Z,100.00
2022-08-20T20:50:42.458Z,100.00
2022-08-20T20:53:09.365Z,100.00
2022-08-20T20:55:40.261Z,100.00
2022-08-20T20:58:07.043Z,100.00
2022-08-20T21:00:34.439Z,100.00
2022-08-20T21:03:02.641Z,100.00
2022-08-20T21:05:30.807Z,100.00
2022-08-20T21:08:03.381Z,100.00
2022-08-20T21:10:34.506Z,100.00
2022-08-20T21:13:03.852Z,100.00
2022-08-20T21:15:32.040Z,100.00
2022-08-20T21:18:01.313Z,100.00
2022-08-20T21:20:28.098Z,100.00
2022-08-20T21:22:57.381Z,100.00
2022-08-20T21:25:25.955Z,100.00
2022-08-20T21:27:54.897Z,100.00
2022-08-20T21:30:23.346Z,100.00
2022-08-20T21:32:50.769Z,100.00
2022-08-20T21:35:18.386Z,100.00
2022-08-20T21:37:45.136Z,100.00
2022-08-20T21:40:13.027Z,100.00
2022-08-20T21:42:41.002Z,100.00
2022-08-20T21:45:18.735Z,100.00
2022-08-20T21:47:49.577Z,100.00
2022-08-20T21:50:18.637Z,100.00
2022-08-20T21:52:55.304Z,100.00
2022-08-20T21:55:28.491Z,100.00
2022-08-20T21:57:55.558Z,100.00
2022-08-20T22:00:44.450Z,100.00
2022-08-20T22:03:13.318Z,100.00
2022-08-20T22:05:42.173Z,100.00
2022-08-20T22:08:09.670Z,100.00
2022-08-20T22:10:36.412Z,100.00
2022-08-20T22:13:03.622Z,100.00
2022-08-20T22:15:30.359Z,100.00
2022-08-20T22:17:57.026Z,100.00
2022-08-20T22:20:25.197Z,100.00
2022-08-20T22:22:51.945Z,100.00
2022-08-20T22:25:18.741Z,100.00
2022-08-20T22:27:47.901Z,100.00
2022-08-20T22:30:15.370Z,100.00
2022-08-20T22:32:52.164Z,100.00
2022-08-20T22:35:28.777Z,100.00
2022-08-20T22:37:55.490Z,100.00
2022-08-20T22:40:24.635Z,100.00
2022-08-20T22:42:51.821Z,100.00
2022-08-20T22:45:19.452Z,100.00
2022-08-20T22:47:49.028Z,100.00
2022-08-20T22:50:17.799Z,100.00
2022-08-20T22:52:47.903Z,100.00
2022-08-20T22:55:14.647Z,100.00
2022-08-20T22:57:41.653Z,100.00
2022-08-20T23:00:12.531Z,100.00
2022-08-20T23:02:42.079Z,100.00
2022-08-20T23:05:13.811Z,100.00
2022-08-20T23:07:42.504Z,100.00
2022-08-20T23:10:09.738Z,100.00
2022-08-20T23:12:36.506Z,100.00
2022-08-20T23:15:05.209Z,100.00
2022-08-20T23:17:32.158Z,100.00
2022-08-20T23:19:58.895Z,100.00
2022-08-20T23:22:27.827Z,100.00
2022-08-20T23:25:00.583Z,100.00
2022-08-20T23:27:28.258Z,100.00
2022-08-20T23:29:55.001Z,100.00
2022-08-20T23:32:21.642Z,100.00
2022-08-20T23:34:49.418Z,100.00
2022-08-20T23:37:19.272Z,100.00
2022-08-20T23:39:46.782Z,100.00
2022-08-20T23:42:14.389Z,100.00
2022-08-20T23:44:41.499Z,100.00
2022-08-20T23:47:09.613Z,100.00
2022-08-20T23:49:36.389Z,100.00
2022-08-20T23:52:03.662Z,100.00
2022-08-20T23:54:31.821Z,100.00
2022-08-20T23:56:59.008Z,100.00
2022-08-20T23:59:26.003Z,100.00
